sensor_id;sensor_type;location;lat;lon;timestamp;temperature;humidity
36710;DHT22;22694;51.040;3.684;2022-10-16T00:00:17;17.00;91.20
36710;DHT22;22694;51.040;3.684;2022-10-16T00:02:43;17.00;91.20
36710;DHT22;22694;51.040;3.684;2022-10-16T00:05:08;17.00;91.20
36710;DHT22;22694;51.040;3.684;2022-10-16T00:07:33;17.00;91.20
36710;DHT22;22694;51.040;3.684;2022-10-16T00:09:59;17.00;91.20
36710;DHT22;22694;51.040;3.684;2022-10-16T00:12:24;17.00;91.20
36710;DHT22;22694;51.040;3.684;2022-10-16T00:14:50;16.90;91.20
36710;DHT22;22694;51.040;3.684;2022-10-16T00:17:15;16.90;91.20
36710;DHT22;22694;51.040;3.684;2022-10-16T00:19:41;17.00;91.20
36710;DHT22;22694;51.040;3.684;2022-10-16T00:22:06;16.90;91.40
36710;DHT22;22694;51.040;3.684;2022-10-16T00:24:32;16.90;91.20
36710;DHT22;22694;51.040;3.684;2022-10-16T00:26:57;16.90;91.20
36710;DHT22;22694;51.040;3.684;2022-10-16T00:29:23;17.00;91.30
36710;DHT22;22694;51.040;3.684;2022-10-16T00:31:48;16.90;91.20
36710;DHT22;22694;51.040;3.684;2022-10-16T00:34:14;17.30;91.30
36710;DHT22;22694;51.040;3.684;2022-10-16T00:36:39;16.80;91.20
36710;DHT22;22694;51.040;3.684;2022-10-16T00:39:05;16.80;91.20
36710;DHT22;22694;51.040;3.684;2022-10-16T00:41:31;16.80;91.30
36710;DHT22;22694;51.040;3.684;2022-10-16T00:43:58;16.90;91.30
36710;DHT22;22694;51.040;3.684;2022-10-16T00:49:04;16.80;91.30
36710;DHT22;22694;51.040;3.684;2022-10-16T00:51:40;16.80;91.30
36710;DHT22;22694;51.040;3.684;2022-10-16T00:54:09;17.00;91.40
36710;DHT22;22694;51.040;3.684;2022-10-16T00:56:35;16.80;91.30
36710;DHT22;22694;51.040;3.684;2022-10-16T00:59:01;16.80;91.30
36710;DHT22;22694;51.040;3.684;2022-10-16T01:01:28;16.80;91.30
36710;DHT22;22694;51.040;3.684;2022-10-16T01:03:54;17.10;91.40
36710;DHT22;22694;51.040;3.684;2022-10-16T01:11:21;16.80;91.30
36710;DHT22;22694;51.040;3.684;2022-10-16T01:13:51;16.70;91.30
36710;DHT22;22694;51.040;3.684;2022-10-16T01:16:22;17.00;91.40
36710;DHT22;22694;51.040;3.684;2022-10-16T01:18:52;16.70;91.30
36710;DHT22;22694;51.040;3.684;2022-10-16T01:21:23;16.90;91.40
36710;DHT22;22694;51.040;3.684;2022-10-16T01:26:28;16.70;91.30
36710;DHT22;22694;51.040;3.684;2022-10-16T01:29:07;16.70;91.30
36710;DHT22;22694;51.040;3.684;2022-10-16T01:31:35;16.70;91.30
36710;DHT22;22694;51.040;3.684;2022-10-16T01:36:47;16.70;91.30
36710;DHT22;22694;51.040;3.684;2022-10-16T01:39:15;16.70;91.30
36710;DHT22;22694;51.040;3.684;2022-10-16T01:41:46;16.70;91.40
36710;DHT22;22694;51.040;3.684;2022-10-16T01:44:15;16.80;91.40
36710;DHT22;22694;51.040;3.684;2022-10-16T01:46:43;16.70;91.40
36710;DHT22;22694;51.040;3.684;2022-10-16T01:49:08;17.10;91.50
36710;DHT22;22694;51.040;3.684;2022-10-16T01:51:35;16.70;91.40
36710;DHT22;22694;51.040;3.684;2022-10-16T01:54:02;16.70;91.40
36710;DHT22;22694;51.040;3.684;2022-10-16T01:56:29;16.60;91.40
36710;DHT22;22694;51.040;3.684;2022-10-16T02:01:23;16.60;91.40
36710;DHT22;22694;51.040;3.684;2022-10-16T02:03:51;16.60;91.40
36710;DHT22;22694;51.040;3.684;2022-10-16T02:06:18;16.60;91.50
36710;DHT22;22694;51.040;3.684;2022-10-16T02:08:43;16.60;91.40
36710;DHT22;22694;51.040;3.684;2022-10-16T02:11:09;16.60;91.40
36710;DHT22;22694;51.040;3.684;2022-10-16T02:13:59;16.60;91.40
36710;DHT22;22694;51.040;3.684;2022-10-16T02:16:36;16.60;91.50
36710;DHT22;22694;51.040;3.684;2022-10-16T02:19:02;16.60;91.50
36710;DHT22;22694;51.040;3.684;2022-10-16T02:21:38;17.00;91.60
36710;DHT22;22694;51.040;3.684;2022-10-16T02:24:09;16.50;91.40
36710;DHT22;22694;51.040;3.684;2022-10-16T02:26:37;16.50;91.50
36710;DHT22;22694;51.040;3.684;2022-10-16T02:29:06;16.50;91.50
36710;DHT22;22694;51.040;3.684;2022-10-16T02:31:34;16.70;91.50
36710;DHT22;22694;51.040;3.684;2022-10-16T02:34:01;16.50;91.50
36710;DHT22;22694;51.040;3.684;2022-10-16T02:36:28;16.50;91.50
36710;DHT22;22694;51.040;3.684;2022-10-16T02:38:53;16.50;91.50
36710;DHT22;22694;51.040;3.684;2022-10-16T02:41:20;16.60;91.50
36710;DHT22;22694;51.040;3.684;2022-10-16T02:43:46;16.50;91.50
36710;DHT22;22694;51.040;3.684;2022-10-16T02:46:12;16.50;91.50
36710;DHT22;22694;51.040;3.684;2022-10-16T02:48:37;16.50;91.50
36710;DHT22;22694;51.040;3.684;2022-10-16T02:51:02;16.70;91.50
36710;DHT22;22694;51.040;3.684;2022-10-16T02:53:28;16.50;91.50
36710;DHT22;22694;51.040;3.684;2022-10-16T02:55:53;16.50;91.50
36710;DHT22;22694;51.040;3.684;2022-10-16T02:58:19;16.50;91.50
36710;DHT22;22694;51.040;3.684;2022-10-16T03:00:45;16.50;91.50
36710;DHT22;22694;51.040;3.684;2022-10-16T03:03:11;16.50;91.50
36710;DHT22;22694;51.040;3.684;2022-10-16T03:05:36;16.50;91.50
36710;DHT22;22694;51.040;3.684;2022-10-16T03:08:02;16.50;91.50
36710;DHT22;22694;51.040;3.684;2022-10-16T03:10:27;16.50;91.60
36710;DHT22;22694;51.040;3.684;2022-10-16T03:12:53;16.40;91.50
36710;DHT22;22694;51.040;3.684;2022-10-16T03:15:18;16.50;91.60
36710;DHT22;22694;51.040;3.684;2022-10-16T03:17:44;16.50;91.60
36710;DHT22;22694;51.040;3.684;2022-10-16T03:20:09;16.50;91.60
36710;DHT22;22694;51.040;3.684;2022-10-16T03:22:35;16.40;91.60
36710;DHT22;22694;51.040;3.684;2022-10-16T03:25:00;17.00;91.70
36710;DHT22;22694;51.040;3.684;2022-10-16T03:27:26;16.40;91.60
36710;DHT22;22694;51.040;3.684;2022-10-16T03:29:51;16.40;91.80
36710;DHT22;22694;51.040;3.684;2022-10-16T03:32:17;16.40;91.60
36710;DHT22;22694;51.040;3.684;2022-10-16T03:34:43;16.50;91.60
36710;DHT22;22694;51.040;3.684;2022-10-16T03:37:09;16.90;91.70
36710;DHT22;22694;51.040;3.684;2022-10-16T03:39:35;16.40;91.60
36710;DHT22;22694;51.040;3.684;2022-10-16T03:42:00;16.40;91.50
36710;DHT22;22694;51.040;3.684;2022-10-16T03:44:25;16.40;91.60
36710;DHT22;22694;51.040;3.684;2022-10-16T03:46:51;16.40;91.60
36710;DHT22;22694;51.040;3.684;2022-10-16T03:49:16;16.40;91.60
36710;DHT22;22694;51.040;3.684;2022-10-16T03:51:42;16.40;91.60
36710;DHT22;22694;51.040;3.684;2022-10-16T03:54:07;16.40;91.60
36710;DHT22;22694;51.040;3.684;2022-10-16T03:56:33;16.40;91.60
36710;DHT22;22694;51.040;3.684;2022-10-16T03:58:58;16.40;91.60
36710;DHT22;22694;51.040;3.684;2022-10-16T04:01:24;16.40;91.70
36710;DHT22;22694;51.040;3.684;2022-10-16T04:03:49;16.40;91.70
36710;DHT22;22694;51.040;3.684;2022-10-16T04:06:15;16.40;91.70
36710;DHT22;22694;51.040;3.684;2022-10-16T04:08:42;16.40;91.70
36710;DHT22;22694;51.040;3.684;2022-10-16T04:11:07;16.40;91.70
36710;DHT22;22694;51.040;3.684;2022-10-16T04:13:33;16.40;91.70
36710;DHT22;22694;51.040;3.684;2022-10-16T04:15:58;16.40;91.70
36710;DHT22;22694;51.040;3.684;2022-10-16T04:18:24;16.40;91.70
36710;DHT22;22694;51.040;3.684;2022-10-16T04:20:52;16.40;91.60
36710;DHT22;22694;51.040;3.684;2022-10-16T04:23:18;16.30;91.60
36710;DHT22;22694;51.040;3.684;2022-10-16T04:25:43;16.30;91.60
36710;DHT22;22694;51.040;3.684;2022-10-16T04:28:09;16.30;91.70
36710;DHT22;22694;51.040;3.684;2022-10-16T04:30:34;16.30;91.70
36710;DHT22;22694;51.040;3.684;2022-10-16T04:33:02;16.30;91.70
36710;DHT22;22694;51.040;3.684;2022-10-16T04:35:28;16.30;91.70
36710;DHT22;22694;51.040;3.684;2022-10-16T04:37:53;16.30;91.70
36710;DHT22;22694;51.040;3.684;2022-10-16T04:40:19;16.30;91.70
36710;DHT22;22694;51.040;3.684;2022-10-16T04:42:44;16.30;91.70
36710;DHT22;22694;51.040;3.684;2022-10-16T04:45:10;16.30;91.70
36710;DHT22;22694;51.040;3.684;2022-10-16T04:47:35;16.30;91.70
36710;DHT22;22694;51.040;3.684;2022-10-16T04:50:01;16.30;91.70
36710;DHT22;22694;51.040;3.684;2022-10-16T04:52:28;16.30;91.70
36710;DHT22;22694;51.040;3.684;2022-10-16T04:54:53;16.30;91.70
36710;DHT22;22694;51.040;3.684;2022-10-16T04:57:19;16.30;91.80
36710;DHT22;22694;51.040;3.684;2022-10-16T04:59:44;16.20;91.70
36710;DHT22;22694;51.040;3.684;2022-10-16T05:02:10;16.20;91.70
36710;DHT22;22694;51.040;3.684;2022-10-16T05:04:35;16.50;91.80
36710;DHT22;22694;51.040;3.684;2022-10-16T05:07:01;16.20;91.70
36710;DHT22;22694;51.040;3.684;2022-10-16T05:09:27;16.20;91.80
36710;DHT22;22694;51.040;3.684;2022-10-16T05:11:52;16.20;91.80
36710;DHT22;22694;51.040;3.684;2022-10-16T05:14:17;16.20;91.70
36710;DHT22;22694;51.040;3.684;2022-10-16T05:16:44;16.20;91.80
36710;DHT22;22694;51.040;3.684;2022-10-16T05:19:09;16.30;91.80
36710;DHT22;22694;51.040;3.684;2022-10-16T05:21:35;16.20;91.80
36710;DHT22;22694;51.040;3.684;2022-10-16T05:24:00;16.20;91.80
36710;DHT22;22694;51.040;3.684;2022-10-16T05:26:26;16.20;91.80
36710;DHT22;22694;51.040;3.684;2022-10-16T05:28:51;16.10;91.80
36710;DHT22;22694;51.040;3.684;2022-10-16T05:31:17;16.10;91.80
36710;DHT22;22694;51.040;3.684;2022-10-16T05:33:42;16.20;91.80
36710;DHT22;22694;51.040;3.684;2022-10-16T05:36:09;16.10;91.80
36710;DHT22;22694;51.040;3.684;2022-10-16T05:38:35;16.50;92.00
36710;DHT22;22694;51.040;3.684;2022-10-16T05:41:01;16.20;92.10
36710;DHT22;22694;51.040;3.684;2022-10-16T05:43:27;16.30;92.20
36710;DHT22;22694;51.040;3.684;2022-10-16T05:46:03;16.30;92.00
36710;DHT22;22694;51.040;3.684;2022-10-16T05:48:29;16.30;91.70
36710;DHT22;22694;51.040;3.684;2022-10-16T05:51:04;16.30;91.80
36710;DHT22;22694;51.040;3.684;2022-10-16T05:53:31;16.20;91.80
36710;DHT22;22694;51.040;3.684;2022-10-16T05:55:56;16.20;91.80
36710;DHT22;22694;51.040;3.684;2022-10-16T05:58:22;16.20;91.80
36710;DHT22;22694;51.040;3.684;2022-10-16T06:00:58;16.20;91.90
36710;DHT22;22694;51.040;3.684;2022-10-16T06:03:24;16.20;91.90
36710;DHT22;22694;51.040;3.684;2022-10-16T06:05:50;16.20;91.90
36710;DHT22;22694;51.040;3.684;2022-10-16T06:08:15;16.20;91.90
36710;DHT22;22694;51.040;3.684;2022-10-16T06:10:41;16.10;91.90
36710;DHT22;22694;51.040;3.684;2022-10-16T06:13:07;16.20;92.00
36710;DHT22;22694;51.040;3.684;2022-10-16T06:15:32;16.20;91.90
36710;DHT22;22694;51.040;3.684;2022-10-16T06:17:58;16.20;91.90
36710;DHT22;22694;51.040;3.684;2022-10-16T06:20:23;16.20;91.90
36710;DHT22;22694;51.040;3.684;2022-10-16T06:22:49;16.20;92.00
36710;DHT22;22694;51.040;3.684;2022-10-16T06:25:14;16.40;92.20
36710;DHT22;22694;51.040;3.684;2022-10-16T06:27:40;16.40;92.30
36710;DHT22;22694;51.040;3.684;2022-10-16T06:30:06;16.60;92.40
36710;DHT22;22694;51.040;3.684;2022-10-16T06:32:32;16.70;92.30
36710;DHT22;22694;51.040;3.684;2022-10-16T06:34:57;16.70;92.20
36710;DHT22;22694;51.040;3.684;2022-10-16T06:37:23;16.80;92.20
36710;DHT22;22694;51.040;3.684;2022-10-16T06:39:48;16.80;92.20
36710;DHT22;22694;51.040;3.684;2022-10-16T06:42:14;16.90;92.20
36710;DHT22;22694;51.040;3.684;2022-10-16T06:44:40;16.90;92.20
36710;DHT22;22694;51.040;3.684;2022-10-16T06:47:06;17.00;92.20
36710;DHT22;22694;51.040;3.684;2022-10-16T06:49:31;17.10;92.20
36710;DHT22;22694;51.040;3.684;2022-10-16T06:51:57;17.00;92.20
36710;DHT22;22694;51.040;3.684;2022-10-16T06:54:22;17.20;92.20
36710;DHT22;22694;51.040;3.684;2022-10-16T06:56:48;17.30;92.20
36710;DHT22;22694;51.040;3.684;2022-10-16T06:59:13;17.10;92.10
36710;DHT22;22694;51.040;3.684;2022-10-16T07:01:39;17.10;92.10
36710;DHT22;22694;51.040;3.684;2022-10-16T07:04:05;17.20;92.10
36710;DHT22;22694;51.040;3.684;2022-10-16T07:06:31;17.20;92.10
36710;DHT22;22694;51.040;3.684;2022-10-16T07:08:57;17.60;92.20
36710;DHT22;22694;51.040;3.684;2022-10-16T07:11:23;17.30;92.10
36710;DHT22;22694;51.040;3.684;2022-10-16T07:13:49;17.30;92.00
36710;DHT22;22694;51.040;3.684;2022-10-16T07:16:19;17.30;92.00
36710;DHT22;22694;51.040;3.684;2022-10-16T07:18:45;17.40;92.00
36710;DHT22;22694;51.040;3.684;2022-10-16T07:21:13;17.40;91.90
36710;DHT22;22694;51.040;3.684;2022-10-16T07:23:41;17.40;91.80
36710;DHT22;22694;51.040;3.684;2022-10-16T07:26:07;17.50;91.80
36710;DHT22;22694;51.040;3.684;2022-10-16T07:28:33;17.50;91.90
36710;DHT22;22694;51.040;3.684;2022-10-16T07:31:06;17.50;92.00
36710;DHT22;22694;51.040;3.684;2022-10-16T07:33:33;17.50;91.80
36710;DHT22;22694;51.040;3.684;2022-10-16T07:35:58;17.60;91.60
36710;DHT22;22694;51.040;3.684;2022-10-16T07:38:24;17.40;91.40
36710;DHT22;22694;51.040;3.684;2022-10-16T07:40:56;17.40;91.30
36710;DHT22;22694;51.040;3.684;2022-10-16T07:43:21;17.50;92.60
36710;DHT22;22694;51.040;3.684;2022-10-16T07:45:47;17.60;92.30
36710;DHT22;22694;51.040;3.684;2022-10-16T07:48:14;17.70;92.20
36710;DHT22;22694;51.040;3.684;2022-10-16T07:50:39;17.80;92.20
36710;DHT22;22694;51.040;3.684;2022-10-16T07:53:05;17.80;92.20
36710;DHT22;22694;51.040;3.684;2022-10-16T07:55:31;17.80;92.20
36710;DHT22;22694;51.040;3.684;2022-10-16T07:57:56;17.90;92.80
36710;DHT22;22694;51.040;3.684;2022-10-16T08:00:22;18.00;92.50
36710;DHT22;22694;51.040;3.684;2022-10-16T08:02:47;18.10;92.20
36710;DHT22;22694;51.040;3.684;2022-10-16T08:05:13;18.10;92.00
36710;DHT22;22694;51.040;3.684;2022-10-16T08:07:39;18.10;91.90
36710;DHT22;22694;51.040;3.684;2022-10-16T08:10:05;18.10;91.80
36710;DHT22;22694;51.040;3.684;2022-10-16T08:12:30;18.10;91.80
36710;DHT22;22694;51.040;3.684;2022-10-16T08:14:56;18.10;91.80
36710;DHT22;22694;51.040;3.684;2022-10-16T08:17:21;18.20;91.80
36710;DHT22;22694;51.040;3.684;2022-10-16T08:19:47;18.20;91.80
36710;DHT22;22694;51.040;3.684;2022-10-16T08:22:15;18.20;91.70
36710;DHT22;22694;51.040;3.684;2022-10-16T08:24:40;18.10;91.60
36710;DHT22;22694;51.040;3.684;2022-10-16T08:27:06;18.20;91.60
36710;DHT22;22694;51.040;3.684;2022-10-16T08:29:32;18.20;91.60
36710;DHT22;22694;51.040;3.684;2022-10-16T08:31:58;18.10;91.50
36710;DHT22;22694;51.040;3.684;2022-10-16T08:34:23;18.10;91.50
36710;DHT22;22694;51.040;3.684;2022-10-16T08:36:49;18.10;91.50
36710;DHT22;22694;51.040;3.684;2022-10-16T08:39:15;18.00;91.50
36710;DHT22;22694;51.040;3.684;2022-10-16T08:49:12;18.00;91.60
36710;DHT22;22694;51.040;3.684;2022-10-16T08:51:39;18.00;91.50
36710;DHT22;22694;51.040;3.684;2022-10-16T08:54:28;18.00;91.50
36710;DHT22;22694;51.040;3.684;2022-10-16T08:56:50;18.00;91.40
36710;DHT22;22694;51.040;3.684;2022-10-16T08:59:16;17.90;91.40
36710;DHT22;22694;51.040;3.684;2022-10-16T09:01:45;17.90;91.50
36710;DHT22;22694;51.040;3.684;2022-10-16T09:04:20;17.90;91.70
36710;DHT22;22694;51.040;3.684;2022-10-16T09:07:11;17.90;91.90
36710;DHT22;22694;51.040;3.684;2022-10-16T09:12:01;18.00;92.10
36710;DHT22;22694;51.040;3.684;2022-10-16T09:17:18;18.10;92.40
36710;DHT22;22694;51.040;3.684;2022-10-16T09:19:56;18.00;92.60
36710;DHT22;22694;51.040;3.684;2022-10-16T09:22:26;18.00;92.70
36710;DHT22;22694;51.040;3.684;2022-10-16T09:24:55;18.00;92.80
36710;DHT22;22694;51.040;3.684;2022-10-16T09:27:23;17.90;92.70
36710;DHT22;22694;51.040;3.684;2022-10-16T09:29:49;18.00;92.60
36710;DHT22;22694;51.040;3.684;2022-10-16T09:32:15;18.00;92.50
36710;DHT22;22694;51.040;3.684;2022-10-16T09:34:43;18.00;93.00
36710;DHT22;22694;51.040;3.684;2022-10-16T09:37:12;18.10;92.80
36710;DHT22;22694;51.040;3.684;2022-10-16T09:39:45;18.10;93.00
36710;DHT22;22694;51.040;3.684;2022-10-16T09:42:54;18.10;93.10
36710;DHT22;22694;51.040;3.684;2022-10-16T09:45:00;18.20;93.30
36710;DHT22;22694;51.040;3.684;2022-10-16T09:47:26;18.20;93.40
36710;DHT22;22694;51.040;3.684;2022-10-16T09:49:59;18.20;93.30
36710;DHT22;22694;51.040;3.684;2022-10-16T09:52:28;18.20;93.30
36710;DHT22;22694;51.040;3.684;2022-10-16T09:54:57;18.30;93.50
36710;DHT22;22694;51.040;3.684;2022-10-16T09:57:23;18.30;93.90
36710;DHT22;22694;51.040;3.684;2022-10-16T09:59:58;18.40;94.00
36710;DHT22;22694;51.040;3.684;2022-10-16T10:02:28;18.40;94.10
36710;DHT22;22694;51.040;3.684;2022-10-16T10:04:55;18.50;94.40
36710;DHT22;22694;51.040;3.684;2022-10-16T10:07:24;18.90;95.30
36710;DHT22;22694;51.040;3.684;2022-10-16T10:09:50;18.60;95.20
36710;DHT22;22694;51.040;3.684;2022-10-16T10:12:17;18.60;95.30
36710;DHT22;22694;51.040;3.684;2022-10-16T10:14:44;18.70;95.20
36710;DHT22;22694;51.040;3.684;2022-10-16T10:19:42;18.70;95.10
36710;DHT22;22694;51.040;3.684;2022-10-16T10:22:15;18.80;95.10
36710;DHT22;22694;51.040;3.684;2022-10-16T10:24:41;18.80;95.00
36710;DHT22;22694;51.040;3.684;2022-10-16T10:27:08;18.80;94.90
36710;DHT22;22694;51.040;3.684;2022-10-16T10:29:40;18.90;94.80
36710;DHT22;22694;51.040;3.684;2022-10-16T10:39:38;19.20;93.60
36710;DHT22;22694;51.040;3.684;2022-10-16T10:57:32;19.30;92.90
36710;DHT22;22694;51.040;3.684;2022-10-16T11:10:24;19.60;92.50
36710;DHT22;22694;51.040;3.684;2022-10-16T11:13:05;19.60;92.50
36710;DHT22;22694;51.040;3.684;2022-10-16T11:15:36;19.70;92.50
36710;DHT22;22694;51.040;3.684;2022-10-16T11:18:08;19.70;92.40
36710;DHT22;22694;51.040;3.684;2022-10-16T11:20:39;19.80;92.30
36710;DHT22;22694;51.040;3.684;2022-10-16T11:23:18;19.80;92.30
36710;DHT22;22694;51.040;3.684;2022-10-16T11:25:46;19.90;92.20
36710;DHT22;22694;51.040;3.684;2022-10-16T11:28:18;19.90;92.20
36710;DHT22;22694;51.040;3.684;2022-10-16T11:30:50;20.00;92.10
36710;DHT22;22694;51.040;3.684;2022-10-16T11:38:34;20.00;91.90
36710;DHT22;22694;51.040;3.684;2022-10-16T11:41:15;20.10;91.80
36710;DHT22;22694;51.040;3.684;2022-10-16T11:43:43;20.10;91.70
36710;DHT22;22694;51.040;3.684;2022-10-16T11:46:12;20.10;91.60
36710;DHT22;22694;51.040;3.684;2022-10-16T11:51:09;20.20;91.50
36710;DHT22;22694;51.040;3.684;2022-10-16T11:53:46;20.30;91.40
36710;DHT22;22694;51.040;3.684;2022-10-16T11:56:16;20.30;91.40
36710;DHT22;22694;51.040;3.684;2022-10-16T12:09:00;20.40;91.10
36710;DHT22;22694;51.040;3.684;2022-10-16T12:13:52;20.50;91.00
36710;DHT22;22694;51.040;3.684;2022-10-16T12:16:28;20.50;90.90
36710;DHT22;22694;51.040;3.684;2022-10-16T12:19:09;20.60;90.90
36710;DHT22;22694;51.040;3.684;2022-10-16T12:21:35;20.60;90.80
36710;DHT22;22694;51.040;3.684;2022-10-16T12:24:02;20.70;90.80
36710;DHT22;22694;51.040;3.684;2022-10-16T12:26:33;20.70;90.80
36710;DHT22;22694;51.040;3.684;2022-10-16T12:31:38;20.80;90.70
36710;DHT22;22694;51.040;3.684;2022-10-16T12:34:14;20.80;90.70
36710;DHT22;22694;51.040;3.684;2022-10-16T12:36:45;20.80;90.70
36710;DHT22;22694;51.040;3.684;2022-10-16T12:39:16;20.80;90.70
36710;DHT22;22694;51.040;3.684;2022-10-16T12:41:45;20.90;90.80
36710;DHT22;22694;51.040;3.684;2022-10-16T12:44:21;20.90;90.80
36710;DHT22;22694;51.040;3.684;2022-10-16T12:46:47;20.80;90.80
36710;DHT22;22694;51.040;3.684;2022-10-16T12:51:38;20.80;91.10
36710;DHT22;22694;51.040;3.684;2022-10-16T12:59:04;20.70;90.80
36710;DHT22;22694;51.040;3.684;2022-10-16T13:04:29;20.60;90.40
36710;DHT22;22694;51.040;3.684;2022-10-16T13:12:27;20.60;90.00
36710;DHT22;22694;51.040;3.684;2022-10-16T13:15:29;20.60;89.60
36710;DHT22;22694;51.040;3.684;2022-10-16T13:17:53;20.60;89.00
36710;DHT22;22694;51.040;3.684;2022-10-16T13:28:06;20.40;85.30
36710;DHT22;22694;51.040;3.684;2022-10-16T13:30:42;20.40;84.40
36710;DHT22;22694;51.040;3.684;2022-10-16T13:33:18;20.30;84.30
36710;DHT22;22694;51.040;3.684;2022-10-16T13:35:52;20.30;84.00
36710;DHT22;22694;51.040;3.684;2022-10-16T13:38:24;20.30;84.20
36710;DHT22;22694;51.040;3.684;2022-10-16T13:43:24;20.30;85.20
36710;DHT22;22694;51.040;3.684;2022-10-16T13:46:01;20.40;85.60
36710;DHT22;22694;51.040;3.684;2022-10-16T13:48:27;20.50;86.20
36710;DHT22;22694;51.040;3.684;2022-10-16T13:53:29;20.80;86.20
36710;DHT22;22694;51.040;3.684;2022-10-16T13:55:55;20.90;86.00
36710;DHT22;22694;51.040;3.684;2022-10-16T13:58:21;21.00;85.90
36710;DHT22;22694;51.040;3.684;2022-10-16T14:00:53;21.00;85.90
36710;DHT22;22694;51.040;3.684;2022-10-16T14:03:20;21.00;86.00
36710;DHT22;22694;51.040;3.684;2022-10-16T14:05:47;21.00;86.20
36710;DHT22;22694;51.040;3.684;2022-10-16T14:08:13;21.10;86.30
36710;DHT22;22694;51.040;3.684;2022-10-16T14:10:38;21.10;86.20
36710;DHT22;22694;51.040;3.684;2022-10-16T14:13:05;21.10;86.00
36710;DHT22;22694;51.040;3.684;2022-10-16T14:15:31;21.10;85.80
36710;DHT22;22694;51.040;3.684;2022-10-16T14:17:58;21.10;85.70
36710;DHT22;22694;51.040;3.684;2022-10-16T14:20:25;21.10;85.50
36710;DHT22;22694;51.040;3.684;2022-10-16T14:22:58;21.10;85.50
36710;DHT22;22694;51.040;3.684;2022-10-16T14:25:25;21.10;85.40
36710;DHT22;22694;51.040;3.684;2022-10-16T14:28:04;21.10;85.20
36710;DHT22;22694;51.040;3.684;2022-10-16T14:30:30;21.00;85.20
36710;DHT22;22694;51.040;3.684;2022-10-16T14:32:57;21.10;85.20
36710;DHT22;22694;51.040;3.684;2022-10-16T14:35:30;21.00;85.40
36710;DHT22;22694;51.040;3.684;2022-10-16T14:37:57;20.90;85.60
36710;DHT22;22694;51.040;3.684;2022-10-16T14:40:24;20.80;85.70
36710;DHT22;22694;51.040;3.684;2022-10-16T14:42:50;20.70;85.80
36710;DHT22;22694;51.040;3.684;2022-10-16T14:45:23;20.60;86.00
36710;DHT22;22694;51.040;3.684;2022-10-16T14:47:53;20.60;86.10
36710;DHT22;22694;51.040;3.684;2022-10-16T14:50:19;20.60;86.10
36710;DHT22;22694;51.040;3.684;2022-10-16T14:52:44;20.40;86.10
36710;DHT22;22694;51.040;3.684;2022-10-16T14:55:10;20.40;86.10
36710;DHT22;22694;51.040;3.684;2022-10-16T14:57:36;20.40;86.20
36710;DHT22;22694;51.040;3.684;2022-10-16T15:00:03;20.40;86.30
36710;DHT22;22694;51.040;3.684;2022-10-16T15:02:30;20.30;86.30
36710;DHT22;22694;51.040;3.684;2022-10-16T15:04:56;20.30;86.40
36710;DHT22;22694;51.040;3.684;2022-10-16T15:07:22;20.50;86.60
36710;DHT22;22694;51.040;3.684;2022-10-16T15:09:47;20.20;86.50
36710;DHT22;22694;51.040;3.684;2022-10-16T15:12:13;20.20;86.60
36710;DHT22;22694;51.040;3.684;2022-10-16T15:14:38;20.20;86.70
36710;DHT22;22694;51.040;3.684;2022-10-16T15:17:04;20.20;86.90
36710;DHT22;22694;51.040;3.684;2022-10-16T15:19:30;20.10;86.90
36710;DHT22;22694;51.040;3.684;2022-10-16T15:21:55;20.10;87.00
36710;DHT22;22694;51.040;3.684;2022-10-16T15:24:21;20.10;87.20
36710;DHT22;22694;51.040;3.684;2022-10-16T15:26:47;20.10;87.30
36710;DHT22;22694;51.040;3.684;2022-10-16T15:29:12;20.00;87.40
36710;DHT22;22694;51.040;3.684;2022-10-16T15:31:38;20.00;87.50
36710;DHT22;22694;51.040;3.684;2022-10-16T15:34:04;20.10;87.80
36710;DHT22;22694;51.040;3.684;2022-10-16T15:36:34;20.20;87.80
36710;DHT22;22694;51.040;3.684;2022-10-16T15:39:19;20.20;87.80
36710;DHT22;22694;51.040;3.684;2022-10-16T15:41:46;20.10;86.60
36710;DHT22;22694;51.040;3.684;2022-10-16T15:44:16;20.10;85.50
36710;DHT22;22694;51.040;3.684;2022-10-16T15:46:42;20.00;85.10
36710;DHT22;22694;51.040;3.684;2022-10-16T15:49:07;19.90;84.70
36710;DHT22;22694;51.040;3.684;2022-10-16T15:51:34;19.90;84.60
36710;DHT22;22694;51.040;3.684;2022-10-16T15:54:02;19.80;84.60
36710;DHT22;22694;51.040;3.684;2022-10-16T15:56:28;19.70;84.60
36710;DHT22;22694;51.040;3.684;2022-10-16T15:58:54;19.60;84.60
36710;DHT22;22694;51.040;3.684;2022-10-16T16:01:19;19.60;84.90
36710;DHT22;22694;51.040;3.684;2022-10-16T16:03:45;19.50;85.10
36710;DHT22;22694;51.040;3.684;2022-10-16T16:06:12;19.50;85.20
36710;DHT22;22694;51.040;3.684;2022-10-16T16:08:38;19.40;85.20
36710;DHT22;22694;51.040;3.684;2022-10-16T16:11:05;19.40;85.30
36710;DHT22;22694;51.040;3.684;2022-10-16T16:13:31;19.30;85.30
36710;DHT22;22694;51.040;3.684;2022-10-16T16:15:57;19.30;86.30
36710;DHT22;22694;51.040;3.684;2022-10-16T16:18:22;19.40;87.30
36710;DHT22;22694;51.040;3.684;2022-10-16T16:20:49;19.40;88.00
36710;DHT22;22694;51.040;3.684;2022-10-16T16:23:15;19.40;89.10
36710;DHT22;22694;51.040;3.684;2022-10-16T16:25:40;19.50;88.80
36710;DHT22;22694;51.040;3.684;2022-10-16T16:28:06;19.50;89.00
36710;DHT22;22694;51.040;3.684;2022-10-16T16:30:32;19.50;89.20
36710;DHT22;22694;51.040;3.684;2022-10-16T16:32:58;19.50;89.40
36710;DHT22;22694;51.040;3.684;2022-10-16T16:35:23;19.50;89.50
36710;DHT22;22694;51.040;3.684;2022-10-16T16:37:49;19.50;89.70
36710;DHT22;22694;51.040;3.684;2022-10-16T16:40:14;19.50;89.70
36710;DHT22;22694;51.040;3.684;2022-10-16T16:42:40;19.50;89.70
36710;DHT22;22694;51.040;3.684;2022-10-16T16:45:05;19.50;89.70
36710;DHT22;22694;51.040;3.684;2022-10-16T16:47:31;19.50;89.90
36710;DHT22;22694;51.040;3.684;2022-10-16T16:49:56;19.50;89.90
36710;DHT22;22694;51.040;3.684;2022-10-16T16:52:22;19.50;90.00
36710;DHT22;22694;51.040;3.684;2022-10-16T16:54:47;19.50;90.10
36710;DHT22;22694;51.040;3.684;2022-10-16T16:57:17;19.50;89.90
36710;DHT22;22694;51.040;3.684;2022-10-16T16:59:43;19.60;90.40
36710;DHT22;22694;51.040;3.684;2022-10-16T17:02:09;19.90;90.40
36710;DHT22;22694;51.040;3.684;2022-10-16T17:04:34;19.70;90.40
36710;DHT22;22694;51.040;3.684;2022-10-16T17:07:00;20.00;90.50
36710;DHT22;22694;51.040;3.684;2022-10-16T17:09:25;19.90;90.30
36710;DHT22;22694;51.040;3.684;2022-10-16T17:11:51;19.90;90.20
36710;DHT22;22694;51.040;3.684;2022-10-16T17:14:16;19.80;90.10
36710;DHT22;22694;51.040;3.684;2022-10-16T17:16:42;19.70;89.90
36710;DHT22;22694;51.040;3.684;2022-10-16T17:19:14;19.60;88.90
36710;DHT22;22694;51.040;3.684;2022-10-16T17:21:40;19.60;88.50
36710;DHT22;22694;51.040;3.684;2022-10-16T17:24:06;19.50;88.50
36710;DHT22;22694;51.040;3.684;2022-10-16T17:26:32;19.50;88.70